Terminal Aerodrome Forecast
Issued by NWS

Home | Current Version | Previous Version | Text Only | Print | Product List | Glossary On
Versions: 1 2 3 4 5 6 7 8 9 10 11 12 13 14 15 16 17 18 19 20
000
FTUS44 KBMX 251740
TAFTOI
TAF
KTOI 251740Z 2518/2618 15009KT P6SM SCT035 SCT045 BKN150
     FM251830 16007KT 6SM -SHRA VCTS BKN025CB OVC035
     FM251900 16007KT 3SM TSRA BKN025CB OVC035
     FM252300 13005KT P6SM -SHRA VCTS SCT025 BKN040CB
     FM260100 13004KT P6SM SCT015 BKN050
     FM261200 15008KT P6SM OVC015=

USA.gov is the U.S. government's official web portal to all federal, state and local government web resources and services.